Airfield :
LOGIN :

Register | Disclaimer

   EN    FR    IT 

 










Legend :    VFR   Marginal VFR   IFR   Intensive IFR   Very Intensive IFR
Visi :
Ceiling :
>= 8 km
>= 3000ft
5 to 8 km
1000 to 3000 ft
1500m to 5 km
500 to 1000 ft
800 to 1500m
200 to 500 ft
< 800m
< 200 ft
Symbols :   Thunderstorms  Fog  Heavy snow  Heavy precipitations  Wind > 20 kt
SIGMETs :     Misc.  Thunderstorms  Icing  Turbulence  Mountain Waves  Volcanic Ashes






- Airport Elevation : 194 ft


EBCV - Chièvres

CURRENT METAR :
  • 171155Z AUTO 21007KT 9999 BKN023/// BKN066/// 15/11 Q1010 WHT

EXPIRED METARs :
  • 171125Z AUTO 20010KT 9999 BKN022/// 14/11 Q1010 WHT
  • 171103Z AUTO 21010KT 9999 SCT020/// 15/11 Q1010 WHT
  • 171025Z AUTO 20009KT 9999 FEW017/// 15/11 Q1010 BLU
  • 171012Z AUTO 19009KT 9999 SCT017/// 15/11 Q1010 WHT
  • 170955Z AUTO 19009KT 9999 FEW013/// 14/11 Q1010 BLU
  • 170942Z AUTO 20008KT 9999 SCT012/// 14/11 Q1011 GRN
  • 170925Z AUTO 21008KT 9999 FEW011/// 14/12 Q1011 BLU

TAF TAF EBCV
Valid from the 17 at 10:00 until the 17 at 19:00 UTC


170841Z 1710/1719 21012KT 8000 SCT015 BKN025
PROB30
TEMPO 1707/1709 21015KT 4000 -RA -DZ BKN006 OVC015
BECMG 1708/1710 23010KT 9999 NSW FEW022 SCT030
TEMPO 1712/1716 21015G25KT 5000 -SHRA SCT018 BKN022 BY EBWM



MET'MAP, your aeronautical weather chart ! - Copyright ORBIFLY December 2007 - Disclaimer

ORBIFLY MET'MAP TEAM :

Programming & Development : Alexandra Zaïnal
Concept & Development : Baudouin d'Aumeries
Co-Development & Prog : Marc-Olivier Méhu
Technical & hardware support : Manuel Goepfert

Contact : metmap@orbifly.com




SOURCES & CREDITS :

   NOAA